• Join FlightAware (Why Join?)
  • Login
  • US Flag 
08:37AM EDT


 

Airport Tracker/Info


-or-


 

Live Flight TrackerFlight Track Log ✈ JBU1329 ✈ 08-Jun-2013 ✈ KBOS - KBWI

Flight Track Log - Related Links

Times and Time Zones

All times are in EDT time to prevent confusion due to time zone crossing. See the JBU1329 flight status page for this flight to view local times or setup timezone preferences in your user account.

Time Position Orientation Groundspeed Altitude Reporting Facility
EDT Latitude Longitude Course Direction KTS MPH feet Rate Location/Type
09:25AM 42.3500 -71.0167 270° West 149 171 1,000  Level KA90
09:28AM 42.2681 -71.1522 231° Southwest 213 245 6,400 2,760 Climbing Boston Center
09:29AM 42.2850 -70.7392 228° Southwest  Level FlightAware Approximate
09:29AM 42.2378 -71.2483 247° West 249 287 10,200  Level Boston Center
09:30AM 42.2221 -70.8429 240° Southwest  Level FlightAware Approximate
09:30AM 42.2200 -71.3411 256° West 281 323 12,200  Level Boston Center
09:31AM 42.1833 -70.9632 270° West  Level FlightAware Approximate
09:31AM 42.1772 -71.4539 243° Southwest 300 345 15,200  Level Boston Center
09:32AM 42.1406 -71.5442 241° Southwest 311 358 17,400 2,340 Climbing Boston Center
09:33AM 42.0956 -71.6511 240° Southwest 316 364 19,900 2,220 Climbing Boston Center
09:34AM 42.0525 -71.7608 242° Southwest 322 371 21,900 1,860 Climbing Boston Center
09:35AM 42.0050 -71.8703 240° Southwest 332 382 23,700 1,800 Climbing Boston Center
09:36AM 41.9578 -71.9850 241° Southwest 342 394 25,500 1,800 Climbing Boston Center
09:37AM 41.9100 -72.1025 241° Southwest 353 406 27,400 1,560 Climbing Boston Center
09:38AM 41.8603 -72.2200 240° Southwest 358 412 28,700 1,200 Climbing Boston Center
09:39AM 41.8086 -72.3425 241° Southwest 363 418 29,800 1,440 Climbing Boston Center
09:40AM 41.7586 -72.4681 242° Southwest 374 430 31,600 1,080 Climbing Boston Center
09:41AM 41.7064 -72.5903 240° Southwest 379 436 32,000 180 Climbing Boston Center
09:42AM 41.6519 -72.7150 240° Southwest 379 436 32,000  Level Boston Center
09:43AM 41.5994 -72.8425 241° Southwest 385 443 32,000  Level Boston Center
09:44AM 41.5467 -72.9669 240° Southwest 390 449 32,000  Level Boston Center
09:45AM 41.4897 -73.0997 240° Southwest 385 443 32,000  Level Boston Center
09:46AM 41.4369 -73.2292 241° Southwest 391 450 32,000  Level Boston Center
09:48AM 41.3197 -73.4978 240° Southwest 393 452 32,000  Level New York Center
09:49AM 41.2628 -73.6197 238° Southwest 393 452 32,000  Level New York Center
09:50AM 41.1953 -73.7353 232° Southwest 398 458 32,000  Level New York Center
09:51AM 41.1300 -73.8453 232° Southwest 398 458 32,000  Level New York Center
09:52AM 41.0647 -73.9525 231° Southwest 398 458 32,000 -60 Level New York Center
09:53AM 40.9989 -74.0647 232° Southwest 393 452 31,900 -1,020 Descending New York Center
09:54AM 40.9333 -74.1742 232° Southwest 388 447 30,000 -1,980 Descending New York Center
09:55AM 40.8658 -74.2750 229° Southwest 388 447 28,000 -1,980 Descending New York Center
09:56AM 40.8044 -74.3761 231° Southwest 377 434 26,100 -1,020 Descending New York Center
09:57AM 40.7450 -74.4769 232° Southwest 359 413 26,000 -60 Descending New York Center
09:58AM 40.6836 -74.5750 230° Southwest 359 413 26,000  Level New York Center
09:59AM 40.6219 -74.6753 231° Southwest 359 413 26,000  Level New York Center
10:00AM 40.5606 -74.7703 230° Southwest 359 413 26,000 -120 Level New York Center
10:01AM 40.4967 -74.8703 230° Southwest 359 413 25,800 -1,020 Descending New York Center
10:02AM 40.4311 -74.9592 226° Southwest 352 405 24,000 -1,860 Descending New York Center
10:03AM 40.3694 -75.0478 228° Southwest 342 394 22,200 -1,800 Descending New York Center
10:04AM 40.3058 -75.1364 227° Southwest 337 388 20,500 -1,620 Descending New York Center
10:05AM 40.2422 -75.2194 225° Southwest 331 381 19,000 -780 Descending New York Center
10:06AM 40.1783 -75.3078 227° Southwest 331 381 19,000  Level New York Center
10:07AM 40.1144 -75.4014 228° Southwest 331 381 19,000  Level New York Center
10:08AM 40.0572 -75.4761 225° Southwest 331 381 19,000  Level New York Center
10:09AM 39.9908 -75.5692 227° Southwest 331 381 19,000  Level New York Center
10:10AM 39.9378 -75.6442 227° Southwest 331 381 19,000 -120 Level New York Center
10:11AM 39.8794 -75.7456 233° Southwest 326 375 18,800 -1,020 Descending New York Center
10:12AM 39.8339 -75.8317 235° Southwest 320 368 17,000 -1,980 Descending New York Center
10:14AM 39.7500 -76.0000 237° Southwest 310 357 13,400 -1,920 Descending Potomac TRACON
10:15AM 39.7000 -76.1000 237° Southwest 305 351 11,700 -1,380 Descending Potomac TRACON
10:16AM 39.6667 -76.2000 247° West 289 333 10,600 -1,200 Descending Potomac TRACON
10:17AM 39.6500 -76.2833 255° West 265 305 9,300 -1,560 Descending Potomac TRACON
10:18AM 39.6000 -76.3500 226° Southwest 266 306 7,700 -1,740 Descending Potomac TRACON
10:19AM 39.5333 -76.4000 210° Southwest 258 297 5,900 -1,380 Descending Potomac TRACON
10:20AM 39.4667 -76.4333 201° Southwest 254 292 5,000 -720 Descending Potomac TRACON
10:21AM 39.4000 -76.4333 180° South 254 292 4,600 -960 Descending Potomac TRACON
10:22AM 39.3333 -76.4333 180° South 254 292 3,100 -840 Descending Potomac TRACON
10:23AM 39.2667 -76.4500 191° South 258 297 3,000 -120 Descending Potomac TRACON